sensor_id;sensor_type;location;lat;lon;timestamp;P1;durP1;ratioP1;P2;durP2;ratioP2
82022;SDS011;71575;49.908;18.356;2023-11-19T00:01:40;55.55;;;30.60;;
82022;SDS011;71575;49.908;18.356;2023-11-19T00:04:42;55.38;;;30.00;;
82022;SDS011;71575;49.908;18.356;2023-11-19T00:10:43;65.10;;;33.85;;
82022;SDS011;71575;49.908;18.356;2023-11-19T00:13:43;60.72;;;38.70;;
82022;SDS011;71575;49.908;18.356;2023-11-19T00:19:45;56.22;;;31.00;;
82022;SDS011;71575;49.908;18.356;2023-11-19T00:25:46;66.50;;;32.90;;
82022;SDS011;71575;49.908;18.356;2023-11-19T00:28:46;53.33;;;31.17;;
82022;SDS011;71575;49.908;18.356;2023-11-19T00:34:48;59.88;;;29.58;;
82022;SDS011;71575;49.908;18.356;2023-11-19T00:37:48;58.33;;;31.98;;
82022;SDS011;71575;49.908;18.356;2023-11-19T00:43:49;61.88;;;31.73;;
82022;SDS011;71575;49.908;18.356;2023-11-19T00:49:50;54.20;;;29.73;;
82022;SDS011;71575;49.908;18.356;2023-11-19T00:55:52;57.08;;;32.25;;
82022;SDS011;71575;49.908;18.356;2023-11-19T01:01:53;55.75;;;29.33;;
82022;SDS011;71575;49.908;18.356;2023-11-19T01:07:54;61.92;;;29.92;;
82022;SDS011;71575;49.908;18.356;2023-11-19T01:13:55;47.72;;;28.55;;
82022;SDS011;71575;49.908;18.356;2023-11-19T01:16:56;65.00;;;31.05;;
82022;SDS011;71575;49.908;18.356;2023-11-19T01:22:57;59.47;;;30.63;;
82022;SDS011;71575;49.908;18.356;2023-11-19T01:28:59;59.22;;;28.98;;
82022;SDS011;71575;49.908;18.356;2023-11-19T01:35:00;59.33;;;28.42;;
82022;SDS011;71575;49.908;18.356;2023-11-19T01:41:01;58.72;;;28.20;;
82022;SDS011;71575;49.908;18.356;2023-11-19T01:47:02;54.15;;;28.73;;
82022;SDS011;71575;49.908;18.356;2023-11-19T01:53:04;54.17;;;27.83;;
82022;SDS011;71575;49.908;18.356;2023-11-19T01:59:06;55.75;;;28.95;;
82022;SDS011;71575;49.908;18.356;2023-11-19T02:02:09;58.58;;;28.63;;
82022;SDS011;71575;49.908;18.356;2023-11-19T02:08:13;56.63;;;26.00;;
82022;SDS011;71575;49.908;18.356;2023-11-19T02:14:14;59.95;;;28.33;;
82022;SDS011;71575;49.908;18.356;2023-11-19T02:17:28;56.42;;;27.80;;
82022;SDS011;71575;49.908;18.356;2023-11-19T02:20:29;59.85;;;29.92;;
82022;SDS011;71575;49.908;18.356;2023-11-19T02:29:41;60.72;;;28.70;;
82022;SDS011;71575;49.908;18.356;2023-11-19T02:35:43;53.63;;;27.10;;
82022;SDS011;71575;49.908;18.356;2023-11-19T02:41:44;50.92;;;24.45;;
82022;SDS011;71575;49.908;18.356;2023-11-19T02:44:45;54.03;;;24.88;;
82022;SDS011;71575;49.908;18.356;2023-11-19T02:50:46;46.85;;;23.95;;
82022;SDS011;71575;49.908;18.356;2023-11-19T02:56:47;44.85;;;23.23;;
82022;SDS011;71575;49.908;18.356;2023-11-19T03:02:48;45.55;;;23.73;;
82022;SDS011;71575;49.908;18.356;2023-11-19T03:05:49;43.90;;;23.02;;
82022;SDS011;71575;49.908;18.356;2023-11-19T03:11:50;43.97;;;23.13;;
82022;SDS011;71575;49.908;18.356;2023-11-19T03:17:52;46.88;;;24.58;;
82022;SDS011;71575;49.908;18.356;2023-11-19T03:23:53;46.05;;;20.95;;
82022;SDS011;71575;49.908;18.356;2023-11-19T03:29:54;38.90;;;22.90;;
82022;SDS011;71575;49.908;18.356;2023-11-19T03:32:55;39.53;;;21.65;;
82022;SDS011;71575;49.908;18.356;2023-11-19T03:35:56;39.92;;;21.83;;
82022;SDS011;71575;49.908;18.356;2023-11-19T03:41:57;39.80;;;20.60;;
82022;SDS011;71575;49.908;18.356;2023-11-19T03:47:59;33.05;;;16.25;;
82022;SDS011;71575;49.908;18.356;2023-11-19T03:54:01;34.08;;;15.85;;
82022;SDS011;71575;49.908;18.356;2023-11-19T04:00:02;31.65;;;14.75;;
82022;SDS011;71575;49.908;18.356;2023-11-19T04:03:13;33.00;;;13.82;;
82022;SDS011;71575;49.908;18.356;2023-11-19T04:09:14;27.52;;;12.73;;
82022;SDS011;71575;49.908;18.356;2023-11-19T04:12:15;28.60;;;13.75;;
82022;SDS011;71575;49.908;18.356;2023-11-19T04:18:16;26.17;;;13.55;;
82022;SDS011;71575;49.908;18.356;2023-11-19T04:24:18;29.73;;;13.85;;
82022;SDS011;71575;49.908;18.356;2023-11-19T04:27:18;26.80;;;13.77;;
82022;SDS011;71575;49.908;18.356;2023-11-19T04:33:19;27.70;;;16.58;;
82022;SDS011;71575;49.908;18.356;2023-11-19T04:36:20;27.30;;;13.40;;
82022;SDS011;71575;49.908;18.356;2023-11-19T04:42:24;25.88;;;12.48;;
82022;SDS011;71575;49.908;18.356;2023-11-19T04:45:25;23.52;;;12.98;;
82022;SDS011;71575;49.908;18.356;2023-11-19T04:51:26;25.73;;;14.25;;
82022;SDS011;71575;49.908;18.356;2023-11-19T04:57:27;20.80;;;11.40;;
82022;SDS011;71575;49.908;18.356;2023-11-19T05:00:28;22.67;;;10.65;;
82022;SDS011;71575;49.908;18.356;2023-11-19T05:03:28;16.98;;;9.00;;
82022;SDS011;71575;49.908;18.356;2023-11-19T05:06:29;25.52;;;11.65;;
82022;SDS011;71575;49.908;18.356;2023-11-19T05:09:30;21.98;;;11.38;;
82022;SDS011;71575;49.908;18.356;2023-11-19T05:12:31;18.33;;;10.07;;
82022;SDS011;71575;49.908;18.356;2023-11-19T05:15:32;26.13;;;11.70;;
82022;SDS011;71575;49.908;18.356;2023-11-19T05:18:32;20.73;;;10.18;;
82022;SDS011;71575;49.908;18.356;2023-11-19T05:21:33;18.63;;;11.23;;
82022;SDS011;71575;49.908;18.356;2023-11-19T05:24:34;19.10;;;10.57;;
82022;SDS011;71575;49.908;18.356;2023-11-19T05:27:35;19.17;;;9.68;;
82022;SDS011;71575;49.908;18.356;2023-11-19T05:30:36;14.43;;;7.38;;
82022;SDS011;71575;49.908;18.356;2023-11-19T05:33:36;18.45;;;8.85;;
82022;SDS011;71575;49.908;18.356;2023-11-19T05:36:37;15.73;;;7.90;;
82022;SDS011;71575;49.908;18.356;2023-11-19T05:39:38;16.20;;;6.85;;
82022;SDS011;71575;49.908;18.356;2023-11-19T05:42:38;16.40;;;7.72;;
82022;SDS011;71575;49.908;18.356;2023-11-19T05:45:40;15.52;;;7.75;;
82022;SDS011;71575;49.908;18.356;2023-11-19T05:48:40;15.63;;;9.45;;
82022;SDS011;71575;49.908;18.356;2023-11-19T05:54:42;13.27;;;7.97;;
82022;SDS011;71575;49.908;18.356;2023-11-19T05:57:42;16.77;;;10.13;;
82022;SDS011;71575;49.908;18.356;2023-11-19T06:00:43;14.05;;;7.53;;
82022;SDS011;71575;49.908;18.356;2023-11-19T06:03:43;15.98;;;7.30;;
82022;SDS011;71575;49.908;18.356;2023-11-19T06:06:44;16.15;;;7.88;;
82022;SDS011;71575;49.908;18.356;2023-11-19T06:09:45;15.52;;;7.60;;
82022;SDS011;71575;49.908;18.356;2023-11-19T06:12:45;17.70;;;8.48;;
82022;SDS011;71575;49.908;18.356;2023-11-19T06:15:46;15.55;;;7.63;;
82022;SDS011;71575;49.908;18.356;2023-11-19T06:18:47;15.85;;;8.55;;
82022;SDS011;71575;49.908;18.356;2023-11-19T06:21:47;15.50;;;7.75;;
82022;SDS011;71575;49.908;18.356;2023-11-19T06:24:48;13.05;;;7.32;;
82022;SDS011;71575;49.908;18.356;2023-11-19T06:27:48;15.15;;;7.07;;
82022;SDS011;71575;49.908;18.356;2023-11-19T06:30:49;17.23;;;7.30;;
82022;SDS011;71575;49.908;18.356;2023-11-19T06:33:50;14.70;;;7.25;;
82022;SDS011;71575;49.908;18.356;2023-11-19T06:36:50;17.95;;;7.53;;
82022;SDS011;71575;49.908;18.356;2023-11-19T06:39:51;16.20;;;8.10;;
82022;SDS011;71575;49.908;18.356;2023-11-19T06:42:52;15.85;;;7.72;;
82022;SDS011;71575;49.908;18.356;2023-11-19T06:45:53;14.25;;;7.38;;
82022;SDS011;71575;49.908;18.356;2023-11-19T06:48:54;14.43;;;7.72;;
82022;SDS011;71575;49.908;18.356;2023-11-19T06:51:54;14.57;;;6.97;;
82022;SDS011;71575;49.908;18.356;2023-11-19T06:54:55;14.55;;;8.48;;
82022;SDS011;71575;49.908;18.356;2023-11-19T06:57:56;15.60;;;6.95;;
82022;SDS011;71575;49.908;18.356;2023-11-19T07:00:56;15.35;;;7.15;;
82022;SDS011;71575;49.908;18.356;2023-11-19T07:03:58;17.40;;;8.20;;
82022;SDS011;71575;49.908;18.356;2023-11-19T07:06:59;15.43;;;8.43;;
82022;SDS011;71575;49.908;18.356;2023-11-19T07:10:00;17.42;;;8.02;;
82022;SDS011;71575;49.908;18.356;2023-11-19T07:13:01;20.42;;;9.77;;
82022;SDS011;71575;49.908;18.356;2023-11-19T07:16:02;18.42;;;8.30;;
82022;SDS011;71575;49.908;18.356;2023-11-19T07:19:05;19.73;;;10.48;;
82022;SDS011;71575;49.908;18.356;2023-11-19T07:22:06;19.02;;;9.93;;
82022;SDS011;71575;49.908;18.356;2023-11-19T07:25:07;18.20;;;9.25;;
82022;SDS011;71575;49.908;18.356;2023-11-19T07:28:08;17.88;;;7.57;;
82022;SDS011;71575;49.908;18.356;2023-11-19T07:31:08;15.15;;;7.22;;
82022;SDS011;71575;49.908;18.356;2023-11-19T07:34:09;14.75;;;7.88;;
82022;SDS011;71575;49.908;18.356;2023-11-19T07:37:10;15.35;;;7.38;;
82022;SDS011;71575;49.908;18.356;2023-11-19T07:40:11;13.95;;;6.30;;
82022;SDS011;71575;49.908;18.356;2023-11-19T07:43:12;15.30;;;7.20;;
82022;SDS011;71575;49.908;18.356;2023-11-19T07:46:13;17.58;;;8.57;;
82022;SDS011;71575;49.908;18.356;2023-11-19T07:49:14;14.95;;;7.50;;
82022;SDS011;71575;49.908;18.356;2023-11-19T07:52:15;14.88;;;7.20;;
82022;SDS011;71575;49.908;18.356;2023-11-19T07:55:15;19.05;;;10.38;;
82022;SDS011;71575;49.908;18.356;2023-11-19T07:58:19;18.85;;;9.00;;
82022;SDS011;71575;49.908;18.356;2023-11-19T08:01:20;18.88;;;8.77;;
82022;SDS011;71575;49.908;18.356;2023-11-19T08:04:20;20.08;;;9.57;;
82022;SDS011;71575;49.908;18.356;2023-11-19T08:07:21;16.13;;;8.35;;
82022;SDS011;71575;49.908;18.356;2023-11-19T08:10:21;18.90;;;9.65;;
82022;SDS011;71575;49.908;18.356;2023-11-19T08:13:25;18.42;;;9.38;;
82022;SDS011;71575;49.908;18.356;2023-11-19T08:16:26;17.52;;;9.38;;
82022;SDS011;71575;49.908;18.356;2023-11-19T08:19:27;19.67;;;10.07;;
82022;SDS011;71575;49.908;18.356;2023-11-19T08:22:27;18.02;;;10.68;;
82022;SDS011;71575;49.908;18.356;2023-11-19T08:25:28;16.13;;;10.02;;
82022;SDS011;71575;49.908;18.356;2023-11-19T08:28:28;17.88;;;9.35;;
82022;SDS011;71575;49.908;18.356;2023-11-19T08:31:29;20.58;;;9.27;;
82022;SDS011;71575;49.908;18.356;2023-11-19T08:34:30;16.73;;;9.48;;
82022;SDS011;71575;49.908;18.356;2023-11-19T08:37:30;18.92;;;10.60;;
82022;SDS011;71575;49.908;18.356;2023-11-19T08:40:31;18.05;;;10.02;;
82022;SDS011;71575;49.908;18.356;2023-11-19T08:43:32;19.17;;;10.02;;
82022;SDS011;71575;49.908;18.356;2023-11-19T08:46:32;17.75;;;9.52;;
82022;SDS011;71575;49.908;18.356;2023-11-19T08:49:33;18.48;;;9.57;;
82022;SDS011;71575;49.908;18.356;2023-11-19T08:52:34;18.00;;;10.52;;
82022;SDS011;71575;49.908;18.356;2023-11-19T08:55:34;16.55;;;8.82;;
82022;SDS011;71575;49.908;18.356;2023-11-19T08:58:35;16.10;;;9.07;;
82022;SDS011;71575;49.908;18.356;2023-11-19T09:01:36;13.40;;;6.55;;
82022;SDS011;71575;49.908;18.356;2023-11-19T09:04:37;11.00;;;4.90;;
82022;SDS011;71575;49.908;18.356;2023-11-19T09:07:37;12.40;;;5.70;;
82022;SDS011;71575;49.908;18.356;2023-11-19T09:10:38;10.35;;;5.35;;
82022;SDS011;71575;49.908;18.356;2023-11-19T09:13:39;10.57;;;5.63;;
82022;SDS011;71575;49.908;18.356;2023-11-19T09:16:40;10.77;;;5.25;;
82022;SDS011;71575;49.908;18.356;2023-11-19T09:19:40;10.85;;;5.47;;
82022;SDS011;71575;49.908;18.356;2023-11-19T09:22:41;9.98;;;4.60;;
82022;SDS011;71575;49.908;18.356;2023-11-19T09:25:42;11.02;;;6.05;;
82022;SDS011;71575;49.908;18.356;2023-11-19T09:28:43;8.30;;;4.20;;
82022;SDS011;71575;49.908;18.356;2023-11-19T09:31:43;9.52;;;4.72;;
82022;SDS011;71575;49.908;18.356;2023-11-19T09:34:44;8.90;;;4.10;;
82022;SDS011;71575;49.908;18.356;2023-11-19T09:37:45;9.10;;;4.57;;
82022;SDS011;71575;49.908;18.356;2023-11-19T09:40:45;9.95;;;3.58;;
82022;SDS011;71575;49.908;18.356;2023-11-19T09:43:46;8.00;;;3.45;;
82022;SDS011;71575;49.908;18.356;2023-11-19T09:46:47;11.55;;;4.32;;
82022;SDS011;71575;49.908;18.356;2023-11-19T09:49:48;8.13;;;3.05;;
82022;SDS011;71575;49.908;18.356;2023-11-19T09:52:49;8.30;;;4.00;;
82022;SDS011;71575;49.908;18.356;2023-11-19T09:55:50;10.38;;;4.55;;
82022;SDS011;71575;49.908;18.356;2023-11-19T09:58:51;8.45;;;4.03;;
82022;SDS011;71575;49.908;18.356;2023-11-19T10:01:52;9.35;;;4.88;;
82022;SDS011;71575;49.908;18.356;2023-11-19T10:04:52;10.40;;;4.70;;
82022;SDS011;71575;49.908;18.356;2023-11-19T10:07:53;8.50;;;4.88;;
82022;SDS011;71575;49.908;18.356;2023-11-19T10:10:54;10.32;;;5.13;;
82022;SDS011;71575;49.908;18.356;2023-11-19T10:13:54;9.45;;;4.80;;
82022;SDS011;71575;49.908;18.356;2023-11-19T10:16:55;8.93;;;4.63;;
82022;SDS011;71575;49.908;18.356;2023-11-19T10:19:56;8.52;;;4.65;;
82022;SDS011;71575;49.908;18.356;2023-11-19T10:22:56;8.95;;;5.00;;
82022;SDS011;71575;49.908;18.356;2023-11-19T10:26:03;10.32;;;5.10;;
82022;SDS011;71575;49.908;18.356;2023-11-19T10:29:04;9.90;;;4.90;;
82022;SDS011;71575;49.908;18.356;2023-11-19T10:32:05;9.95;;;3.55;;
82022;SDS011;71575;49.908;18.356;2023-11-19T10:35:06;8.57;;;3.47;;
82022;SDS011;71575;49.908;18.356;2023-11-19T10:38:13;9.02;;;5.22;;
82022;SDS011;71575;49.908;18.356;2023-11-19T10:41:16;8.75;;;3.55;;
82022;SDS011;71575;49.908;18.356;2023-11-19T10:44:33;7.65;;;3.33;;
82022;SDS011;71575;49.908;18.356;2023-11-19T10:47:34;9.02;;;4.07;;
82022;SDS011;71575;49.908;18.356;2023-11-19T10:50:37;7.55;;;3.30;;
82022;SDS011;71575;49.908;18.356;2023-11-19T10:53:38;7.95;;;3.35;;
82022;SDS011;71575;49.908;18.356;2023-11-19T10:56:38;10.23;;;4.25;;
82022;SDS011;71575;49.908;18.356;2023-11-19T10:59:40;9.20;;;4.15;;
82022;SDS011;71575;49.908;18.356;2023-11-19T11:02:42;9.52;;;6.65;;
82022;SDS011;71575;49.908;18.356;2023-11-19T11:05:48;9.65;;;4.40;;
82022;SDS011;71575;49.908;18.356;2023-11-19T11:08:52;8.60;;;4.15;;
82022;SDS011;71575;49.908;18.356;2023-11-19T11:11:54;9.43;;;4.78;;
82022;SDS011;71575;49.908;18.356;2023-11-19T11:14:55;9.10;;;4.15;;
82022;SDS011;71575;49.908;18.356;2023-11-19T11:17:57;8.25;;;4.72;;
82022;SDS011;71575;49.908;18.356;2023-11-19T11:21:00;10.07;;;4.88;;
82022;SDS011;71575;49.908;18.356;2023-11-19T11:24:18;9.90;;;5.28;;
82022;SDS011;71575;49.908;18.356;2023-11-19T11:27:50;9.43;;;4.50;;
82022;SDS011;71575;49.908;18.356;2023-11-19T11:34:44;7.10;;;3.67;;
82022;SDS011;71575;49.908;18.356;2023-11-19T11:38:07;8.68;;;3.67;;
82022;SDS011;71575;49.908;18.356;2023-11-19T11:41:18;7.97;;;3.50;;
82022;SDS011;71575;49.908;18.356;2023-11-19T11:44:30;8.00;;;3.40;;
82022;SDS011;71575;49.908;18.356;2023-11-19T11:51:05;7.82;;;3.30;;
82022;SDS011;71575;49.908;18.356;2023-11-19T11:54:07;7.60;;;3.70;;
82022;SDS011;71575;49.908;18.356;2023-11-19T11:57:09;7.50;;;3.30;;
82022;SDS011;71575;49.908;18.356;2023-11-19T12:00:11;7.93;;;4.22;;
82022;SDS011;71575;49.908;18.356;2023-11-19T12:03:22;6.43;;;2.83;;
82022;SDS011;71575;49.908;18.356;2023-11-19T12:06:23;6.32;;;2.55;;
82022;SDS011;71575;49.908;18.356;2023-11-19T12:09:24;7.15;;;2.83;;
82022;SDS011;71575;49.908;18.356;2023-11-19T12:12:26;7.03;;;2.40;;
82022;SDS011;71575;49.908;18.356;2023-11-19T12:15:27;6.38;;;3.03;;
82022;SDS011;71575;49.908;18.356;2023-11-19T12:18:31;6.70;;;3.05;;
82022;SDS011;71575;49.908;18.356;2023-11-19T12:21:32;6.03;;;2.35;;
82022;SDS011;71575;49.908;18.356;2023-11-19T12:24:33;5.88;;;2.05;;
82022;SDS011;71575;49.908;18.356;2023-11-19T12:27:34;8.10;;;3.88;;
82022;SDS011;71575;49.908;18.356;2023-11-19T12:30:35;5.88;;;2.72;;
82022;SDS011;71575;49.908;18.356;2023-11-19T12:33:36;8.15;;;3.58;;
82022;SDS011;71575;49.908;18.356;2023-11-19T12:36:36;7.28;;;3.80;;
82022;SDS011;71575;49.908;18.356;2023-11-19T12:39:38;7.72;;;2.88;;
82022;SDS011;71575;49.908;18.356;2023-11-19T12:42:38;7.65;;;3.00;;
82022;SDS011;71575;49.908;18.356;2023-11-19T12:45:39;8.18;;;3.83;;
82022;SDS011;71575;49.908;18.356;2023-11-19T12:48:41;7.65;;;3.03;;
82022;SDS011;71575;49.908;18.356;2023-11-19T12:51:42;8.02;;;3.70;;
82022;SDS011;71575;49.908;18.356;2023-11-19T12:54:43;7.85;;;2.88;;
82022;SDS011;71575;49.908;18.356;2023-11-19T12:57:43;5.65;;;2.22;;
82022;SDS011;71575;49.908;18.356;2023-11-19T13:00:44;7.80;;;3.75;;
82022;SDS011;71575;49.908;18.356;2023-11-19T13:03:46;6.90;;;3.35;;
82022;SDS011;71575;49.908;18.356;2023-11-19T13:06:48;7.13;;;3.00;;
82022;SDS011;71575;49.908;18.356;2023-11-19T13:09:48;9.27;;;4.30;;
82022;SDS011;71575;49.908;18.356;2023-11-19T13:13:05;7.93;;;3.55;;
82022;SDS011;71575;49.908;18.356;2023-11-19T13:16:06;7.60;;;3.13;;
82022;SDS011;71575;49.908;18.356;2023-11-19T13:19:07;6.57;;;3.00;;
82022;SDS011;71575;49.908;18.356;2023-11-19T13:22:08;6.82;;;2.45;;
82022;SDS011;71575;49.908;18.356;2023-11-19T13:25:09;4.97;;;1.92;;
82022;SDS011;71575;49.908;18.356;2023-11-19T13:28:09;6.55;;;4.18;;
82022;SDS011;71575;49.908;18.356;2023-11-19T13:31:10;6.55;;;2.95;;
82022;SDS011;71575;49.908;18.356;2023-11-19T13:34:10;5.10;;;2.15;;
82022;SDS011;71575;49.908;18.356;2023-11-19T13:37:11;5.30;;;2.05;;
82022;SDS011;71575;49.908;18.356;2023-11-19T13:40:12;5.78;;;2.22;;
82022;SDS011;71575;49.908;18.356;2023-11-19T13:43:13;7.90;;;2.42;;
82022;SDS011;71575;49.908;18.356;2023-11-19T13:46:14;6.03;;;1.98;;
82022;SDS011;71575;49.908;18.356;2023-11-19T13:49:15;4.93;;;2.10;;
82022;SDS011;71575;49.908;18.356;2023-11-19T13:52:16;5.82;;;2.45;;
82022;SDS011;71575;49.908;18.356;2023-11-19T13:55:17;5.75;;;3.10;;
82022;SDS011;71575;49.908;18.356;2023-11-19T13:58:17;5.95;;;2.10;;
82022;SDS011;71575;49.908;18.356;2023-11-19T14:01:18;6.32;;;2.80;;
82022;SDS011;71575;49.908;18.356;2023-11-19T14:04:19;5.82;;;2.42;;
82022;SDS011;71575;49.908;18.356;2023-11-19T14:07:19;5.78;;;2.25;;
82022;SDS011;71575;49.908;18.356;2023-11-19T14:10:20;5.15;;;2.50;;
82022;SDS011;71575;49.908;18.356;2023-11-19T14:13:21;5.15;;;2.00;;
82022;SDS011;71575;49.908;18.356;2023-11-19T14:16:22;6.45;;;2.38;;
82022;SDS011;71575;49.908;18.356;2023-11-19T14:19:27;5.10;;;1.98;;
82022;SDS011;71575;49.908;18.356;2023-11-19T14:22:27;5.90;;;2.08;;
82022;SDS011;71575;49.908;18.356;2023-11-19T14:25:28;7.65;;;2.85;;
82022;SDS011;71575;49.908;18.356;2023-11-19T14:28:28;5.20;;;2.63;;
82022;SDS011;71575;49.908;18.356;2023-11-19T14:31:29;5.15;;;2.30;;
82022;SDS011;71575;49.908;18.356;2023-11-19T14:34:30;4.50;;;1.23;;
82022;SDS011;71575;49.908;18.356;2023-11-19T14:37:31;5.90;;;3.60;;
82022;SDS011;71575;49.908;18.356;2023-11-19T14:40:31;5.30;;;2.22;;
82022;SDS011;71575;49.908;18.356;2023-11-19T14:43:32;6.22;;;3.22;;
82022;SDS011;71575;49.908;18.356;2023-11-19T14:46:33;5.55;;;2.08;;
82022;SDS011;71575;49.908;18.356;2023-11-19T14:49:36;5.93;;;2.75;;
82022;SDS011;71575;49.908;18.356;2023-11-19T14:52:37;5.63;;;2.88;;
82022;SDS011;71575;49.908;18.356;2023-11-19T14:55:38;5.32;;;3.33;;
82022;SDS011;71575;49.908;18.356;2023-11-19T14:58:38;5.10;;;2.40;;
82022;SDS011;71575;49.908;18.356;2023-11-19T15:01:39;6.70;;;2.20;;
82022;SDS011;71575;49.908;18.356;2023-11-19T15:04:40;5.10;;;2.50;;
82022;SDS011;71575;49.908;18.356;2023-11-19T15:07:41;5.75;;;3.65;;
82022;SDS011;71575;49.908;18.356;2023-11-19T15:10:42;6.90;;;2.95;;
82022;SDS011;71575;49.908;18.356;2023-11-19T15:13:43;5.35;;;2.38;;
82022;SDS011;71575;49.908;18.356;2023-11-19T15:16:43;5.60;;;2.10;;
82022;SDS011;71575;49.908;18.356;2023-11-19T15:19:44;5.88;;;3.55;;
82022;SDS011;71575;49.908;18.356;2023-11-19T15:22:44;6.38;;;4.03;;
82022;SDS011;71575;49.908;18.356;2023-11-19T15:25:45;6.32;;;2.92;;
82022;SDS011;71575;49.908;18.356;2023-11-19T15:28:46;9.90;;;5.38;;
82022;SDS011;71575;49.908;18.356;2023-11-19T15:31:46;6.90;;;4.03;;
82022;SDS011;71575;49.908;18.356;2023-11-19T15:34:47;7.90;;;3.38;;
82022;SDS011;71575;49.908;18.356;2023-11-19T15:37:48;9.80;;;4.93;;
82022;SDS011;71575;49.908;18.356;2023-11-19T15:40:49;7.88;;;4.15;;
82022;SDS011;71575;49.908;18.356;2023-11-19T15:43:49;6.75;;;2.95;;
82022;SDS011;71575;49.908;18.356;2023-11-19T15:46:50;6.32;;;3.88;;
82022;SDS011;71575;49.908;18.356;2023-11-19T15:49:51;6.40;;;2.80;;
82022;SDS011;71575;49.908;18.356;2023-11-19T15:52:51;5.68;;;2.88;;
82022;SDS011;71575;49.908;18.356;2023-11-19T15:55:52;6.45;;;3.25;;
82022;SDS011;71575;49.908;18.356;2023-11-19T15:58:53;6.50;;;2.20;;
82022;SDS011;71575;49.908;18.356;2023-11-19T16:01:54;6.63;;;2.65;;
82022;SDS011;71575;49.908;18.356;2023-11-19T16:04:54;5.65;;;3.00;;
82022;SDS011;71575;49.908;18.356;2023-11-19T16:07:55;6.28;;;3.92;;
82022;SDS011;71575;49.908;18.356;2023-11-19T16:10:56;7.05;;;3.42;;
82022;SDS011;71575;49.908;18.356;2023-11-19T16:13:56;7.30;;;3.03;;
82022;SDS011;71575;49.908;18.356;2023-11-19T16:16:57;7.38;;;3.58;;
82022;SDS011;71575;49.908;18.356;2023-11-19T16:19:57;7.30;;;3.10;;
82022;SDS011;71575;49.908;18.356;2023-11-19T16:22:58;6.28;;;3.33;;
82022;SDS011;71575;49.908;18.356;2023-11-19T16:25:59;7.05;;;3.35;;
82022;SDS011;71575;49.908;18.356;2023-11-19T16:28:59;5.82;;;2.03;;
82022;SDS011;71575;49.908;18.356;2023-11-19T16:32:00;6.22;;;2.85;;
82022;SDS011;71575;49.908;18.356;2023-11-19T16:35:01;7.03;;;3.05;;
82022;SDS011;71575;49.908;18.356;2023-11-19T16:38:02;7.43;;;3.95;;
82022;SDS011;71575;49.908;18.356;2023-11-19T16:41:03;8.35;;;3.83;;
82022;SDS011;71575;49.908;18.356;2023-11-19T16:44:04;6.88;;;3.80;;
82022;SDS011;71575;49.908;18.356;2023-11-19T16:47:05;6.90;;;3.17;;
82022;SDS011;71575;49.908;18.356;2023-11-19T16:50:06;6.97;;;3.75;;
82022;SDS011;71575;49.908;18.356;2023-11-19T16:53:07;8.98;;;4.35;;
82022;SDS011;71575;49.908;18.356;2023-11-19T16:56:08;8.52;;;3.75;;
82022;SDS011;71575;49.908;18.356;2023-11-19T16:59:09;9.18;;;3.80;;
82022;SDS011;71575;49.908;18.356;2023-11-19T17:02:13;8.05;;;3.40;;
82022;SDS011;71575;49.908;18.356;2023-11-19T17:05:14;9.07;;;5.18;;
82022;SDS011;71575;49.908;18.356;2023-11-19T17:08:15;8.77;;;4.38;;
82022;SDS011;71575;49.908;18.356;2023-11-19T17:11:15;10.75;;;5.00;;
82022;SDS011;71575;49.908;18.356;2023-11-19T17:14:16;9.20;;;4.07;;
82022;SDS011;71575;49.908;18.356;2023-11-19T17:17:17;10.85;;;5.50;;
82022;SDS011;71575;49.908;18.356;2023-11-19T17:20:18;10.25;;;6.18;;
82022;SDS011;71575;49.908;18.356;2023-11-19T17:23:19;9.13;;;4.93;;
82022;SDS011;71575;49.908;18.356;2023-11-19T17:26:20;10.15;;;4.80;;
82022;SDS011;71575;49.908;18.356;2023-11-19T17:29:21;7.07;;;3.63;;
82022;SDS011;71575;49.908;18.356;2023-11-19T17:32:22;8.95;;;5.40;;
82022;SDS011;71575;49.908;18.356;2023-11-19T17:35:23;8.45;;;3.67;;
82022;SDS011;71575;49.908;18.356;2023-11-19T17:38:24;8.23;;;4.47;;
82022;SDS011;71575;49.908;18.356;2023-11-19T17:41:24;9.77;;;5.15;;
82022;SDS011;71575;49.908;18.356;2023-11-19T17:44:25;9.55;;;5.22;;
82022;SDS011;71575;49.908;18.356;2023-11-19T17:47:26;10.95;;;6.00;;
82022;SDS011;71575;49.908;18.356;2023-11-19T17:50:27;11.38;;;4.72;;
82022;SDS011;71575;49.908;18.356;2023-11-19T17:53:27;10.02;;;5.22;;
82022;SDS011;71575;49.908;18.356;2023-11-19T17:56:28;10.82;;;4.85;;
82022;SDS011;71575;49.908;18.356;2023-11-19T17:59:29;10.02;;;5.28;;
82022;SDS011;71575;49.908;18.356;2023-11-19T18:02:29;10.52;;;5.88;;
82022;SDS011;71575;49.908;18.356;2023-11-19T18:05:30;11.25;;;5.10;;
82022;SDS011;71575;49.908;18.356;2023-11-19T18:08:31;9.57;;;4.38;;
82022;SDS011;71575;49.908;18.356;2023-11-19T18:11:38;11.43;;;5.45;;
82022;SDS011;71575;49.908;18.356;2023-11-19T18:14:39;10.68;;;5.72;;
82022;SDS011;71575;49.908;18.356;2023-11-19T18:17:40;10.77;;;4.18;;
82022;SDS011;71575;49.908;18.356;2023-11-19T18:20:41;11.05;;;5.70;;
82022;SDS011;71575;49.908;18.356;2023-11-19T18:23:42;10.95;;;6.57;;
82022;SDS011;71575;49.908;18.356;2023-11-19T18:26:42;10.45;;;5.63;;
82022;SDS011;71575;49.908;18.356;2023-11-19T18:29:45;10.55;;;5.88;;
82022;SDS011;71575;49.908;18.356;2023-11-19T18:32:46;13.20;;;6.70;;
82022;SDS011;71575;49.908;18.356;2023-11-19T18:35:47;13.82;;;5.72;;
82022;SDS011;71575;49.908;18.356;2023-11-19T18:38:47;10.93;;;5.90;;
82022;SDS011;71575;49.908;18.356;2023-11-19T18:41:48;11.60;;;7.60;;
82022;SDS011;71575;49.908;18.356;2023-11-19T18:44:49;12.10;;;6.18;;
82022;SDS011;71575;49.908;18.356;2023-11-19T18:47:49;8.80;;;4.53;;
82022;SDS011;71575;49.908;18.356;2023-11-19T18:50:50;12.10;;;6.63;;
82022;SDS011;71575;49.908;18.356;2023-11-19T18:53:51;12.45;;;8.52;;
82022;SDS011;71575;49.908;18.356;2023-11-19T18:56:52;11.50;;;6.40;;
82022;SDS011;71575;49.908;18.356;2023-11-19T18:59:53;11.35;;;5.93;;
82022;SDS011;71575;49.908;18.356;2023-11-19T19:02:54;12.45;;;5.78;;
82022;SDS011;71575;49.908;18.356;2023-11-19T19:05:54;9.50;;;4.88;;
82022;SDS011;71575;49.908;18.356;2023-11-19T19:08:55;9.60;;;5.68;;
82022;SDS011;71575;49.908;18.356;2023-11-19T19:11:56;10.40;;;4.88;;
82022;SDS011;71575;49.908;18.356;2023-11-19T19:14:57;9.52;;;5.18;;
82022;SDS011;71575;49.908;18.356;2023-11-19T19:17:58;10.73;;;5.82;;
82022;SDS011;71575;49.908;18.356;2023-11-19T19:20:58;9.43;;;5.47;;
82022;SDS011;71575;49.908;18.356;2023-11-19T19:23:59;8.77;;;4.82;;
82022;SDS011;71575;49.908;18.356;2023-11-19T19:27:00;12.35;;;5.53;;
82022;SDS011;71575;49.908;18.356;2023-11-19T19:30:01;9.23;;;4.95;;
82022;SDS011;71575;49.908;18.356;2023-11-19T19:33:02;10.23;;;5.80;;
82022;SDS011;71575;49.908;18.356;2023-11-19T19:36:02;11.85;;;5.75;;
82022;SDS011;71575;49.908;18.356;2023-11-19T19:39:04;12.23;;;5.57;;
82022;SDS011;71575;49.908;18.356;2023-11-19T19:42:04;12.27;;;6.72;;
82022;SDS011;71575;49.908;18.356;2023-11-19T19:45:06;12.23;;;6.20;;
82022;SDS011;71575;49.908;18.356;2023-11-19T19:48:07;12.07;;;7.38;;
82022;SDS011;71575;49.908;18.356;2023-11-19T19:51:09;13.07;;;5.78;;
82022;SDS011;71575;49.908;18.356;2023-11-19T19:54:10;12.88;;;6.90;;
82022;SDS011;71575;49.908;18.356;2023-11-19T19:57:11;10.43;;;4.63;;